Thursday, May 5, 2016, 3:55 PM EDT

KDOV, Dover Air Force Base

Location: Dover, DE, United States Lat: 39.133
Local Time: 3:55 PM EDT (19:55 GMT) Lon: -75.467
Time Zone: US/Eastern Elev: 29 ft

Show me the last for .
Show Decoded

2016-05-05 15:43 METAR KDOV 051943Z AUTO 04011KT 10SM SCT014 OVC022 12/11 A2962 RMK AO2 CIG
                 014V022 VISNO RWY19 CHINO RWY19 $ =
2016-05-05 15:38 METAR KDOV 051938Z AUTO 02010KT 8SM BKN014 OVC022 12/11 A2962 RMK AO2 VISNO
                 RWY19 CHINO RWY19 $ =
2016-05-05 14:58 METAR KDOV 051858Z AUTO 03010KT 10SM OVC016 12/10 A2962 =
2016-05-05 13:58 METAR KDOV 051758Z AUTO 01008KT 10SM OVC016 12/10 A2963 =
2016-05-05 13:08 METAR KDOV 051708Z AUTO 02010KT 10SM OVC015 11/10 A2964 RMK AO2 =
2016-05-05 12:58 METAR KDOV 051658Z AUTO 02009KT 10SM OVC014 12/11 A2963 =
2016-05-05 12:43 METAR KDOV 051643Z AUTO 03009KT 10SM BKN014 OVC019 12/11 A2964 RMK AO2 CIG
                 013V017 VISNO RWY19 CHINO RWY19 $ =
2016-05-05 12:38 METAR KDOV 051638Z AUTO 03009KT 10SM BKN014 OVC019 11/11 A2964 RMK AO2 CIG
                 014V018 VISNO RWY19 CHINO RWY19 $ =
2016-05-05 12:13 METAR KDOV 051613Z AUTO 02012KT 10SM BKN015 OVC020 11/11 A2965 RMK AO2 BKN V OVC
                 VISNO RWY19 CHINO RWY19 $ =
2016-05-05 12:03 METAR KDOV 051603Z AUTO 03009KT 10SM OVC012 11/10 A2966 RMK AO2 VISNO RWY19
                 CHINO RWY19 $ =
2016-05-05 11:58 METAR KDOV 051558Z AUTO 01010KT 10SM OVC011 11/10 A2966 RMK AO2 SLP047 T01050102
                 VISNO RWY19 CHINO RWY19 $ =
2016-05-05 11:41 METAR KDOV 051541Z AUTO 01008KT 10SM OVC011 10/10 A2966 RMK AO2 =
2016-05-05 11:23 METAR KDOV 051523Z AUTO 36009KT 10SM OVC014 10/10 A2967 RMK AO2 =
2016-05-05 10:58 METAR KDOV 051458Z AUTO 02010KT 10SM BKN015 OVC021 10/10 A2967 =
2016-05-05 10:53 METAR KDOV 051453Z AUTO 01009KT 10SM BKN015 OVC021 10/10 A2967 =
2016-05-05 10:13 METAR KDOV 051413Z AUTO 03007KT 10SM OVC014 10/10 A2967 RMK AO2 =
2016-05-05 10:08 METAR KDOV 051408Z AUTO 03008KT 10SM OVC015 10/10 A2967 RMK AO2 VISNO RWY19
                 CHINO RWY19 $ =
2016-05-05 09:58 METAR KDOV 051358Z AUTO 04006KT 10SM OVC014 10/10 A2967 =
2016-05-05 09:06 METAR KDOV 051306Z AUTO 03010KT 10SM FEW008 OVC012 09/09 A2966 RMK AO2 =
2016-05-05 09:03 METAR KDOV 051303Z AUTO 03014KT 10SM OVC012 09/09 A2966 RMK AO2 VISNO RWY19
                 CHINO RWY19 $ =
2016-05-05 08:58 METAR KDOV 051258Z AUTO 03011KT 10SM OVC010 09/09 A2966 RMK AO2 DZB29E39 OVC V
                 BKN SLP047 P0000 T00930093 VISNO RWY19 CHINO RWY19 $ =
2016-05-05 08:39 METAR KDOV 051239Z AUTO 03010KT 10SM OVC009 09/09 A2966 RMK AO2 DZB29E39 =
2016-05-05 08:34 METAR KDOV 051234Z AUTO 04009KT 9SM -DZ OVC009 09/09 A2966 RMK AO2 DZB29 VISNO
                 RWY19 CHINO RWY19 $ =
2016-05-05 08:29 METAR KDOV 051229Z AUTO 03007KT 8SM -DZ OVC010 09/09 A2966 RMK AO2 DZB29 =
2016-05-05 07:58 METAR KDOV 051158Z AUTO 03010KT 10SM OVC011 09/09 A2966 RMK AO2 SLP047 70030
                 T00930093 10096 20091 53004 VISNO RWY19 CHINO RWY19 $ =
2016-05-05 07:42 METAR KDOV 051142Z AUTO 03009KT 10SM OVC011 09/09 A2966 RMK AO2 =
2016-05-05 07:03 METAR KDOV 051103Z AUTO 03008KT 10SM OVC013 09/09 A2966 RMK AO2 VISNO RWY19
                 CHINO RWY19 $ =
2016-05-05 06:58 METAR KDOV 051058Z AUTO 03007KT 10SM OVC011 09/09 A2966 RMK AO2 SLP047 T00910091
                 VISNO RWY19 CHINO RWY19 $ =
2016-05-05 06:42 METAR KDOV 051042Z AUTO 03008KT 10SM OVC011 09/09 A2965 RMK AO2 =
2016-05-05 05:58 METAR KDOV 050958Z AUTO 01008KT 10SM OVC012 09/09 A2964 RMK AO2 SLP040 T00910091
                 VISNO RWY19 CHINO RWY19 $ =
2016-05-05 04:58 METAR KDOV 050858Z AUTO 03007KT 10SM OVC014 09/09 A2965 RMK AO2 SLP044 T00920092
                 57015 VISNO RWY19 CHINO RWY19 $ =
2016-05-05 04:45 METAR KDOV 050845Z AUTO 03008KT 10SM OVC012 09/09 A2965 RMK AO2 VISNO RWY19
                 CHINO RWY19 $ =
2016-05-05 04:35 METAR KDOV 050835Z AUTO 02008KT 10SM OVC011 09/09 A2966 RMK AO2 OVC V BKN VISNO
                 RWY19 CHINO RWY19 $ =
2016-05-05 04:34 METAR KDOV 050834Z AUTO 02009KT 10SM OVC012 09/09 A2966 RMK AO2 VISNO RWY19
                 CHINO RWY19 $ =
2016-05-05 04:24 METAR KDOV 050824Z AUTO 02010KT 10SM BKN011 OVC017 09/09 A2966 RMK AO2 VISNO
                 RWY19 CHINO RWY19 $ =
2016-05-05 04:23 METAR KDOV 050823Z AUTO 03010KT 10SM OVC012 09/09 A2966 RMK AO2 =
2016-05-05 04:03 METAR KDOV 050803Z AUTO 05008KT 10SM OVC010 09/09 A2968 RMK AO2 VISNO RWY19
                 CHINO RWY19 $ =
2016-05-05 03:58 METAR KDOV 050758Z AUTO 04007KT 10SM OVC009 09/09 A2967 RMK AO2 SLP050 T00930093
                 VISNO RWY19 CHINO RWY19 $ =
2016-05-05 03:03 METAR KDOV 050703Z AUTO 04007KT 10SM OVC009 09/09 A2968 RMK AO2 VISNO RWY19
                 CHINO RWY19 $ =
2016-05-05 02:58 METAR KDOV 050658Z AUTO 04009KT 10SM OVC010 10/10 A2968 RMK AO2 SLP054 T00950095
                 VISNO RWY19 CHINO RWY19 $ =
2016-05-05 01:58 METAR KDOV 050558Z AUTO 04008KT 10SM OVC010 09/09 A2969 RMK AO2 SLPNO T00940094
                 10107 20094 58004 VISNO RWY19 CHINO RWY19 $ =
2016-05-05 01:51 METAR KDOV 050551Z AUTO 04007KT 10SM OVC010 09/09 A2970 RMK AO2 OVC V BKN =
2016-05-05 01:36 METAR KDOV 050536Z AUTO 06008KT 9SM R01/5500FT OVC011 09/09 A2970 RMK AO2 =
2016-05-05 01:18 METAR KDOV 050518Z AUTO 04009KT 7SM R01/5500FT OVC012 09/09 A2970 RMK AO2 VISNO
                 RWY19 CHINO RWY19 $ =
2016-05-05 01:03 METAR KDOV 050503Z AUTO 04009KT 9SM R01/5500FT OVC010 09/09 A2970 RMK AO2 =
2016-05-05 00:58 METAR KDOV 050458Z AUTO 05009KT 10SM OVC011 10/10 A2970 RMK AO2 SLPNO T00950095
                 401250095 VISNO RWY19 CHINO RWY19 $ =
2016-05-05 00:45 METAR KDOV 050445Z AUTO 06010KT 10SM BKN010 OVC014 10/10 A2970 RMK AO2 CIG
                 010V012 VISNO RWY19 CHINO RWY19 $ =
2016-05-05 00:40 METAR KDOV 050440Z AUTO 05009KT 10SM BKN010 OVC014 10/10 A2970 RMK AO2 CIG
                 010V013 =
2016-05-05 00:34 METAR KDOV 050434Z AUTO 05010KT 10SM OVC012 10/10 A2970 RMK AO2 VISNO RWY19
                 CHINO RWY19 $ =
2016-05-05 00:24 METAR KDOV 050424Z AUTO 05010KT 10SM OVC011 10/10 A2970 RMK AO2 =
2016-05-05 00:18 METAR KDOV 050418Z AUTO 05008KT 10SM OVC012 10/10 A2970 RMK AO2 VISNO RWY19
                 CHINO RWY19 $ =
2016-05-04 23:58 METAR KDOV 050358Z AUTO 05008KT 9SM R01/5500FT OVC011 10/10 A2971 =
2016-05-04 23:54 METAR KDOV 050354Z AUTO 04007KT 9SM R01/5500FT OVC011 10/10 A2971 RMK AO2 =
2016-05-04 23:44 METAR KDOV 050344Z AUTO 05007KT 9SM R01/5500FT OVC012 10/10 A2971 RMK AO2 VISNO
                 RWY19 CHINO RWY19 $ =
2016-05-04 23:29 METAR KDOV 050329Z AUTO 04007KT 10SM OVC011 10/10 A2971 RMK AO2 VISNO RWY19
                 CHINO RWY19 $ =
2016-05-04 23:28 METAR KDOV 050328Z AUTO 05007KT 10SM OVC012 10/10 A2971 RMK AO2 VISNO RWY19
                 CHINO RWY19 $ =
2016-05-04 23:03 METAR KDOV 050303Z AUTO 04009KT 10SM OVC011 10/10 A2971 RMK AO2 VISNO RWY19
                 CHINO RWY19 $ =
2016-05-04 22:58 METAR KDOV 050258Z AUTO 04010KT 10SM BKN009 OVC014 10/10 A2971 RMK AO2 CIG
                 009V011 SLPNO T00960096 50004 VISNO RWY19 CHINO RWY19 $ =
2016-05-04 22:55 METAR KDOV 050255Z AUTO 04008KT 10SM OVC010 10/10 A2971 RMK AO2 OVC V BKN =
2016-05-04 22:45 METAR KDOV 050245Z AUTO 05008KT 9SM R01/5500FT OVC011 10/10 A2971 RMK AO2 =
2016-05-04 22:41 METAR KDOV 050241Z AUTO 04008KT 8SM R01/5500FT OVC012 10/10 A2971 RMK AO2 VISNO
                 RWY19 CHINO RWY19 $ =
2016-05-04 22:31 METAR KDOV 050231Z AUTO 04008KT 5SM R01/5000FT BR OVC011 10/10 A2971 RMK AO2
                 VISNO RWY19 CHINO RWY19 $ =
2016-05-04 22:22 METAR KDOV 050222Z AUTO 05008KT 6SM R01/5000FT BR OVC012 10/10 A2971 RMK AO2
                 VISNO RWY19 CHINO RWY19 $ =
2016-05-04 22:12 METAR KDOV 050212Z AUTO 05009KT 8SM R01/5500FT OVC011 10/10 A2971 RMK AO2 VISNO
                 RWY19 CHINO RWY19 $ =
2016-05-04 22:07 METAR KDOV 050207Z AUTO 05009KT 9SM OVC011 10/10 A2971 RMK AO2 =
2016-05-04 21:58 METAR KDOV 050158Z AUTO 05009KT 10SM OVC012 10/10 A2971 RMK AO2 SLPNO T00980098
                 VISNO RWY19 CHINO RWY19 $ =
2016-05-04 21:48 METAR KDOV 050148Z AUTO 04010KT 9SM OVC012 10/10 A2971 RMK AO2 =
2016-05-04 21:43 METAR KDOV 050143Z AUTO 05011KT 9SM R01/5500FT OVC012 10/10 A2971 RMK AO2 =
2016-05-04 21:08 METAR KDOV 050108Z AUTO 04011KT 10SM OVC012 10/10 A2971 RMK AO2 =
2016-05-04 20:58 METAR KDOV 050058Z AUTO 03007KT 10SM OVC011 10/10 A2971 RMK AO2 SLPNO T01020102
                 VISNO RWY19 CHINO RWY19 $ =
2016-05-04 19:58 METAR KDOV 042358Z AUTO 04006KT 10SM OVC010 11/11 A2969 RMK AO2 SLPNO T01070107
                 10124 20107 53009 VISNO RWY19 CHINO RWY19 $ =
2016-05-04 18:58 METAR KDOV 042258Z AUTO 04008KT 10SM OVC011 11/11 A2967 =
2016-05-04 18:48 METAR KDOV 042248Z AUTO 03009KT 10SM OVC009 11/11 A2966 RMK AO2 VISNO RWY19
                 CHINO RWY19 $ =
2016-05-04 18:43 METAR KDOV 042243Z AUTO 03008KT 10SM OVC010 11/11 A2966 RMK AO2 =
2016-05-04 18:23 METAR KDOV 042223Z AUTO 03011KT 10SM OVC009 11/11 A2966 RMK AO2 OVC V BKN VISNO
                 RWY19 CHINO RWY19 $ =
2016-05-04 18:08 METAR KDOV 042208Z AUTO 04010KT 10SM OVC010 12/12 A2966 RMK AO2 =
2016-05-04 17:58 METAR KDOV 042158Z AUTO 03010KT 10SM OVC009 12/12 A2966 RMK AO2 SLP047 T01150115
                 VISNO RWY19 CHINO RWY19 $ =
2016-05-04 17:28 METAR KDOV 042128Z AUTO 01009KT 10SM OVC009 12/12 A2967 RMK AO2 VISNO RWY19
                 CHINO RWY19 $ =
2016-05-04 16:58 METAR KDOV 042058Z AUTO 01008KT 10SM OVC010 12/12 A2967 RMK AO2 OVC V BKN SLP050
                 T01200120 VISNO RWY19 CHINO RWY19 $ =
2016-05-04 16:43 METAR KDOV 042043Z AUTO 02010KT 10SM OVC010 12/12 A2967 RMK AO2 =
2016-05-04 16:28 METAR KDOV 042028Z AUTO 36010KT 10SM OVC009 12/12 A2966 RMK AO2 VISNO RWY19
                 CHINO RWY19 $ =
2016-05-04 15:58 METAR KDOV 041958Z AUTO 36010KT 10SM OVC010 12/12 A2966 RMK AO2 SLP047 T01220122
                 VISNO RWY19 CHINO RWY19 $ =

Support USWX by starting your Amazon purchase here.